Barfleur — FNIE — position and weather

sailwx.info

Track history (hours):
 
Tides and Currents Weather Stations Pressure Air Temp Water Temp Dewpoint Dewpoint Depression Visibility Wind Speed Wind Dir Waves Ship Positions

Barfleur

Operator: Brittany Ferries

Last reported at 2015-Feb-28 22:33 UTC. Time now 2015-Mar-01 08:33 UTC.
Position N 50°42' W 001°59'.

Length 158 m; draft 5 m.

Type: Passenger vessel. MMSI: 227289000.

Date/timePositionNaut miles runAvg speedWind from/ knotsBaromVisibWave heightAir tempDewpointWater temp
2015-Feb-28 22:33N 50°42' W 001°59'0 0.0
2015-Feb-28 21:33N 50°42' W 001°59'1111.4
2015-Feb-28 20:33N 50°32' W 001°52'1 0.1
2015-Feb-28 09:20N 50°33' W 001°53'1012.8
2015-Feb-28 08:32N 50°42' W 001°59'0 0.0
2015-Feb-27 22:33N 50°42' W 001°59'0 0.1
2015-Feb-27 21:34N 50°42' W 001°60'1312.8
2015-Feb-27 20:33N 50°31' W 001°50'4 0.3
2015-Feb-27 09:11N 50°34' W 001°53'913.6
2015-Feb-27 08:33N 50°42' W 001°58'1 0.1
2015-Feb-26 23:11N 50°42' W 001°59'0 0.0
2015-Feb-26 22:33N 50°42' W 001°59'7 6.7
2015-Feb-26 21:33N 50°37' W 001°54'3 0.3
2015-Feb-26 09:09N 50°34' W 001°53'914.3
2015-Feb-26 08:33N 50°42' W 001°57'1 0.5
2015-Feb-26 06:29N 50°41' W 001°57'12 0.6
2015-Feb-25 09:31N 50°30' W 001°52'1313.5
2015-Feb-25 08:32N 50°42' W 001°59'2 0.8
2015-Feb-25 06:30N 50°41' W 001°57'12 0.6
2015-Feb-24 09:34N 50°29' W 001°52'1413.0
2015-Feb-24 08:29N 50°42' W 001°59'0 0.0
2015-Feb-23 23:25N 50°42' W 001°59'0 0.0
2015-Feb-23 22:33N 50°42' W 001°59'2 1.6
2015-Feb-23 21:34N 50°42' W 001°57'1615.5
2015-Feb-23 20:34N 50°27' W 001°49'6 0.6
2015-Feb-23 09:11N 50°33' W 001°53'913.9
2015-Feb-23 08:33N 50°41' W 001°57'2 0.2
2015-Feb-22 22:12N 50°42' W 001°59'0 0.1
2015-Feb-22 21:33N 50°42' W 001°59'1211.6
2015-Feb-22 20:33N 50°32' W 001°53'4 0.3
2015-Feb-22 09:34N 50°28' W 001°50'1514.5
2015-Feb-22 08:33N 50°42' W 001°58'1 0.1
2015-Feb-21 22:08N 50°42' W 001°59'0 0.2
2015-Feb-21 21:33N 50°42' W 001°59'1313.2
2015-Feb-21 20:34N 50°30' W 001°53'2 0.2
2015-Feb-21 09:33N 50°29' W 001°51'1514.0
2015-Feb-21 08:31N 50°42' W 001°58'1 0.1
2015-Feb-20 22:34N 50°42' W 001°59'1 0.7
2015-Feb-20 21:34N 50°42' W 001°58'1414.4
2015-Feb-20 20:33N 50°29' W 001°52'6 0.5
2015-Feb-20 09:12N 50°35' W 001°53'812.8
2015-Feb-20 08:33N 50°42' W 001°58'1 0.6
2015-Feb-20 06:31N 50°42' W 001°59'0 0.0
2015-Feb-20 05:10N 50°42' W 001°59'0 0.0
2015-Feb-20 03:17N 50°42' W 001°59'0 0.0
2015-Feb-20 01:04N 50°42' W 001°59'0 0.0
2015-Feb-19 23:19N 50°42' W 001°59'0 0.0
2015-Feb-19 22:34N 50°42' W 001°59'4 4.0
2015-Feb-19 21:33N 50°39' W 001°55'5 0.5
2015-Feb-19 09:33N 50°34' W 001°53'8 2.8
2015-Feb-19 06:31N 50°42' W 001°58'  
Track history (hours):
 
Tides and Currents Weather Stations Pressure Air Temp Water Temp Dewpoint Dewpoint Depression Visibility Wind Speed Wind Dir Waves Ship Positions

Barfleur

Operator: Brittany Ferries

Last reported at 2015-Feb-28 22:33 UTC. Time now 2015-Mar-01 08:33 UTC.
Position N 50°42' W 001°59'.

Length 158 m; draft 5 m.

Type: Passenger vessel. MMSI: 227289000.

Date/timePositionNaut miles runAvg speedWind from/ knotsBaromVisibWave heightAir tempDewpointWater temp
2015-Feb-28 22:33N 50°42' W 001°59'0 0.0
2015-Feb-28 21:33N 50°42' W 001°59'1111.4
2015-Feb-28 20:33N 50°32' W 001°52'1 0.1
2015-Feb-28 09:20N 50°33' W 001°53'1012.8
2015-Feb-28 08:32N 50°42' W 001°59'0 0.0
2015-Feb-27 22:33N 50°42' W 001°59'0 0.1
2015-Feb-27 21:34N 50°42' W 001°60'1312.8
2015-Feb-27 20:33N 50°31' W 001°50'4 0.3
2015-Feb-27 09:11N 50°34' W 001°53'913.6
2015-Feb-27 08:33N 50°42' W 001°58'1 0.1
2015-Feb-26 23:11N 50°42' W 001°59'0 0.0
2015-Feb-26 22:33N 50°42' W 001°59'7 6.7
2015-Feb-26 21:33N 50°37' W 001°54'3 0.3
2015-Feb-26 09:09N 50°34' W 001°53'914.3
2015-Feb-26 08:33N 50°42' W 001°57'1 0.5
2015-Feb-26 06:29N 50°41' W 001°57'12 0.6
2015-Feb-25 09:31N 50°30' W 001°52'1313.5
2015-Feb-25 08:32N 50°42' W 001°59'2 0.8
2015-Feb-25 06:30N 50°41' W 001°57'12 0.6
2015-Feb-24 09:34N 50°29' W 001°52'1413.0
2015-Feb-24 08:29N 50°42' W 001°59'0 0.0
2015-Feb-23 23:25N 50°42' W 001°59'0 0.0
2015-Feb-23 22:33N 50°42' W 001°59'2 1.6
2015-Feb-23 21:34N 50°42' W 001°57'1615.5
2015-Feb-23 20:34N 50°27' W 001°49'6 0.6
2015-Feb-23 09:11N 50°33' W 001°53'913.9
2015-Feb-23 08:33N 50°41' W 001°57'2 0.2
2015-Feb-22 22:12N 50°42' W 001°59'0 0.1
2015-Feb-22 21:33N 50°42' W 001°59'1211.6
2015-Feb-22 20:33N 50°32' W 001°53'4 0.3
2015-Feb-22 09:34N 50°28' W 001°50'1514.5
2015-Feb-22 08:33N 50°42' W 001°58'1 0.1
2015-Feb-21 22:08N 50°42' W 001°59'0 0.2
2015-Feb-21 21:33N 50°42' W 001°59'1313.2
2015-Feb-21 20:34N 50°30' W 001°53'2 0.2
2015-Feb-21 09:33N 50°29' W 001°51'1514.0
2015-Feb-21 08:31N 50°42' W 001°58'1 0.1
2015-Feb-20 22:34N 50°42' W 001°59'1 0.7
2015-Feb-20 21:34N 50°42' W 001°58'1414.4
2015-Feb-20 20:33N 50°29' W 001°52'6 0.5
2015-Feb-20 09:12N 50°35' W 001°53'812.8
2015-Feb-20 08:33N 50°42' W 001°58'1 0.6
2015-Feb-20 06:31N 50°42' W 001°59'0 0.0
2015-Feb-20 05:10N 50°42' W 001°59'0 0.0
2015-Feb-20 03:17N 50°42' W 001°59'0 0.0
2015-Feb-20 01:04N 50°42' W 001°59'0 0.0
2015-Feb-19 23:19N 50°42' W 001°59'0 0.0
2015-Feb-19 22:34N 50°42' W 001°59'4 4.0
2015-Feb-19 21:33N 50°39' W 001°55'5 0.5
2015-Feb-19 09:33N 50°34' W 001°53'8 2.8
2015-Feb-19 06:31N 50°42' W 001°58'  

Dump ship's entire track history